sensor_id;sensor_type;location;lat;lon;timestamp;pressure;altitude;pressure_sealevel;temperature
84287;BMP280;74445;55.252;61.092;2024-03-23T00:54:06;100084.16;;;-7.84
84287;BMP280;74445;55.252;61.092;2024-03-23T00:56:32;101629.44;;;-7.78
84287;BMP280;74445;55.252;61.092;2024-03-23T00:58:58;101440.81;;;-7.74
84287;BMP280;74445;55.252;61.092;2024-03-23T01:01:24;100870.81;;;-7.70
84287;BMP280;74445;55.252;61.092;2024-03-23T01:03:50;98887.78;;;-7.64
84287;BMP280;74445;55.252;61.092;2024-03-23T01:06:16;97277.59;;;-7.61
84287;BMP280;74445;55.252;61.092;2024-03-23T01:08:42;96552.34;;;-7.59
84287;BMP280;74445;55.252;61.092;2024-03-23T01:11:08;95580.94;;;-7.56
84287;BMP280;74445;55.252;61.092;2024-03-23T01:13:34;94765.97;;;-7.57
84287;BMP280;74445;55.252;61.092;2024-03-23T01:16:00;91880.97;;;-7.55
84287;BMP280;74445;55.252;61.092;2024-03-23T01:18:27;88104.91;;;-7.51
84287;BMP280;74445;55.252;61.092;2024-03-23T01:20:53;89257.22;;;-7.51
84287;BMP280;74445;55.252;61.092;2024-03-23T01:23:19;89880.03;;;-7.53
84287;BMP280;74445;55.252;61.092;2024-03-23T01:25:52;90082.06;;;-7.52
84287;BMP280;74445;55.252;61.092;2024-03-23T01:28:20;90193.13;;;-7.54
84287;BMP280;74445;55.252;61.092;2024-03-23T01:30:46;90272.34;;;-7.57
84287;BMP280;74445;55.252;61.092;2024-03-23T01:33:13;89850.31;;;-7.58
84287;BMP280;74445;55.252;61.092;2024-03-23T01:35:39;89480.53;;;-7.60
84287;BMP280;74445;55.252;61.092;2024-03-23T01:38:06;89563.03;;;-7.62
84287;BMP280;74445;55.252;61.092;2024-03-23T01:40:32;90328.16;;;-7.62
84287;BMP280;74445;55.252;61.092;2024-03-23T01:43:03;91130.59;;;-7.58
84287;BMP280;74445;55.252;61.092;2024-03-23T01:45:34;90665.97;;;-7.57
84287;BMP280;74445;55.252;61.092;2024-03-23T01:48:02;90391.69;;;-7.51
84287;BMP280;74445;55.252;61.092;2024-03-23T01:50:30;90352.00;;;-7.44
84287;BMP280;74445;55.252;61.092;2024-03-23T01:53:01;88097.19;;;-7.34
84287;BMP280;74445;55.252;61.092;2024-03-23T01:55:28;87220.50;;;-7.25
84287;BMP280;74445;55.252;61.092;2024-03-23T01:57:56;85915.03;;;-7.13
84287;BMP280;74445;55.252;61.092;2024-03-23T02:00:23;85217.84;;;-7.03
84287;BMP280;74445;55.252;61.092;2024-03-23T02:02:50;84399.72;;;-6.89
84287;BMP280;74445;55.252;61.092;2024-03-23T02:05:16;83105.63;;;-6.54
84287;BMP280;74445;55.252;61.092;2024-03-23T02:07:43;80079.19;;;-6.05
84287;BMP280;74445;55.252;61.092;2024-03-23T02:10:10;76626.97;;;-5.72
84287;BMP280;74445;55.252;61.092;2024-03-23T02:12:39;73847.53;;;-5.27
84287;BMP280;74445;55.252;61.092;2024-03-23T02:15:06;70543.72;;;-4.45
84287;BMP280;74445;55.252;61.092;2024-03-23T02:17:33;72824.44;;;-3.46
84287;BMP280;74445;55.252;61.092;2024-03-23T02:20:00;82416.25;;;-2.47
84287;BMP280;74445;55.252;61.092;2024-03-23T02:22:37;101534.09;;;-1.40
84287;BMP280;74445;55.252;61.092;2024-03-23T02:25:04;135711.13;;;-0.52
84287;BMP280;74445;55.252;61.092;2024-03-23T02:27:31;145203.81;;;0.36
84287;BMP280;74445;55.252;61.092;2024-03-23T02:29:57;145420.06;;;1.25
84287;BMP280;74445;55.252;61.092;2024-03-23T02:32:23;145621.81;;;2.08
84287;BMP280;74445;55.252;61.092;2024-03-23T02:34:49;145810.34;;;2.85
84287;BMP280;74445;55.252;61.092;2024-03-23T02:37:15;146005.09;;;3.65
84287;BMP280;74445;55.252;61.092;2024-03-23T02:39:42;146176.81;;;4.35
84287;BMP280;74445;55.252;61.092;2024-03-23T02:42:08;146353.56;;;5.07
84287;BMP280;74445;55.252;61.092;2024-03-23T02:44:34;146536.47;;;5.82
84287;BMP280;74445;55.252;61.092;2024-03-23T02:47:00;146717.03;;;6.55
84287;BMP280;74445;55.252;61.092;2024-03-23T02:49:27;146912.38;;;7.35
84287;BMP280;74445;55.252;61.092;2024-03-23T02:51:53;147077.25;;;8.02
84287;BMP280;74445;55.252;61.092;2024-03-23T02:54:19;147244.72;;;8.71
84287;BMP280;74445;55.252;61.092;2024-03-23T02:56:45;147396.34;;;9.32
84287;BMP280;74445;55.252;61.092;2024-03-23T02:59:12;147521.09;;;9.83
84287;BMP280;74445;55.252;61.092;2024-03-23T03:01:38;147659.41;;;10.39
84287;BMP280;74445;55.252;61.092;2024-03-23T03:04:04;147741.41;;;10.73
84287;BMP280;74445;55.252;61.092;2024-03-23T03:06:31;147827.13;;;11.08
84287;BMP280;74445;55.252;61.092;2024-03-23T03:08:57;147910.41;;;11.41
84287;BMP280;74445;55.252;61.092;2024-03-23T03:11:23;148008.47;;;11.81
84287;BMP280;74445;55.252;61.092;2024-03-23T03:13:50;148115.06;;;12.25
84287;BMP280;74445;55.252;61.092;2024-03-23T03:16:16;148265.81;;;12.86
84287;BMP280;74445;55.252;61.092;2024-03-23T03:18:42;148387.31;;;13.35
84287;BMP280;74445;55.252;61.092;2024-03-23T03:21:09;148549.25;;;14.01
84287;BMP280;74445;55.252;61.092;2024-03-23T03:23:37;148641.31;;;14.38
84287;BMP280;74445;55.252;61.092;2024-03-23T03:26:04;148753.03;;;14.84
84287;BMP280;74445;55.252;61.092;2024-03-23T03:28:34;148891.81;;;15.40
84287;BMP280;74445;55.252;61.092;2024-03-23T03:31:01;148948.34;;;15.63
84287;BMP280;74445;55.252;61.092;2024-03-23T03:33:27;149031.88;;;15.97
84287;BMP280;74445;55.252;61.092;2024-03-23T03:35:54;149113.00;;;16.30
84287;BMP280;74445;55.252;61.092;2024-03-23T03:38:21;149176.97;;;16.56
84287;BMP280;74445;55.252;61.092;2024-03-23T03:40:47;149264.22;;;16.91
84287;BMP280;74445;55.252;61.092;2024-03-23T03:43:13;149365.13;;;17.32
84287;BMP280;74445;55.252;61.092;2024-03-23T03:45:40;149469.72;;;17.74
84287;BMP280;74445;55.252;61.092;2024-03-23T03:48:06;149607.53;;;18.30
84287;BMP280;74445;55.252;61.092;2024-03-23T03:50:33;149734.34;;;18.81
84287;BMP280;74445;55.252;61.092;2024-03-23T03:52:59;149835.31;;;19.22
84287;BMP280;74445;55.252;61.092;2024-03-23T03:55:25;149922.78;;;19.57
84287;BMP280;74445;55.252;61.092;2024-03-23T03:57:51;150058.34;;;20.12
84287;BMP280;74445;55.252;61.092;2024-03-23T04:00:18;150083.00;;;20.22
84287;BMP280;74445;55.252;61.092;2024-03-23T04:02:44;150122.44;;;20.38
84287;BMP280;74445;55.252;61.092;2024-03-23T04:05:10;150203.72;;;20.71
84287;BMP280;74445;55.252;61.092;2024-03-23T04:07:36;150280.22;;;21.02
84287;BMP280;74445;55.252;61.092;2024-03-23T04:10:02;150298.72;;;21.09
84287;BMP280;74445;55.252;61.092;2024-03-23T04:12:33;150245.69;;;20.88
84287;BMP280;74445;55.252;61.092;2024-03-23T04:14:59;150338.19;;;21.25
84287;BMP280;74445;55.252;61.092;2024-03-23T04:17:27;150476.31;;;21.81
84287;BMP280;74445;55.252;61.092;2024-03-23T04:19:58;150575.00;;;22.21
84287;BMP280;74445;55.252;61.092;2024-03-23T04:22:24;150645.41;;;22.49
84287;BMP280;74445;55.252;61.092;2024-03-23T04:24:54;150745.38;;;22.90
84287;BMP280;74445;55.252;61.092;2024-03-23T04:27:20;150751.56;;;22.92
84287;BMP280;74445;55.252;61.092;2024-03-23T04:29:50;150884.88;;;23.46
84287;BMP280;74445;55.252;61.092;2024-03-23T04:32:16;150765.13;;;22.98
84287;BMP280;74445;55.252;61.092;2024-03-23T04:34:43;150805.88;;;23.14
84287;BMP280;74445;55.252;61.092;2024-03-23T04:37:10;150877.47;;;23.43
84287;BMP280;74445;55.252;61.092;2024-03-23T04:39:37;150951.56;;;23.73
84287;BMP280;74445;55.252;61.092;2024-03-23T04:42:05;150835.50;;;23.26
84287;BMP280;74445;55.252;61.092;2024-03-23T04:44:31;150810.81;;;23.16
84287;BMP280;74445;55.252;61.092;2024-03-23T04:46:58;150882.41;;;23.45
84287;BMP280;74445;55.252;61.092;2024-03-23T04:49:24;150962.72;;;23.77
84287;BMP280;74445;55.252;61.092;2024-03-23T04:51:50;150940.47;;;23.68
84287;BMP280;74445;55.252;61.092;2024-03-23T04:54:17;151002.28;;;23.93
84287;BMP280;74445;55.252;61.092;2024-03-23T04:56:45;151020.78;;;24.01
84287;BMP280;74445;55.252;61.092;2024-03-23T04:59:11;151070.19;;;24.21
84287;BMP280;74445;55.252;61.092;2024-03-23T05:01:38;151171.56;;;24.62
84287;BMP280;74445;55.252;61.092;2024-03-23T05:04:06;151206.16;;;24.75
84287;BMP280;74445;55.252;61.092;2024-03-23T05:06:32;151327.31;;;25.24
84287;BMP280;74445;55.252;61.092;2024-03-23T05:08:58;151390.34;;;25.50
84287;BMP280;74445;55.252;61.092;2024-03-23T05:11:24;151392.81;;;25.51
84287;BMP280;74445;55.252;61.092;2024-03-23T05:13:50;151347.09;;;25.32
84287;BMP280;74445;55.252;61.092;2024-03-23T05:16:16;151366.88;;;25.40
84287;BMP280;74445;55.252;61.092;2024-03-23T05:18:42;151368.09;;;25.41
84287;BMP280;74445;55.252;61.092;2024-03-23T05:21:08;151371.81;;;25.42
84287;BMP280;74445;55.252;61.092;2024-03-23T05:23:34;151314.97;;;25.19
84287;BMP280;74445;55.252;61.092;2024-03-23T05:26:01;151290.19;;;25.09
84287;BMP280;74445;55.252;61.092;2024-03-23T05:28:27;151266.69;;;25.00
84287;BMP280;74445;55.252;61.092;2024-03-23T05:30:54;151202.41;;;24.74
84287;BMP280;74445;55.252;61.092;2024-03-23T05:33:21;151177.72;;;24.64
84287;BMP280;74445;55.252;61.092;2024-03-23T05:35:47;151233.34;;;24.86
84287;BMP280;74445;55.252;61.092;2024-03-23T05:38:14;151287.72;;;25.08
84287;BMP280;74445;55.252;61.092;2024-03-23T05:40:40;151300.06;;;25.13
84287;BMP280;74445;55.252;61.092;2024-03-23T05:43:06;151405.16;;;25.56
84287;BMP280;74445;55.252;61.092;2024-03-23T05:45:33;151470.72;;;25.82
84287;BMP280;74445;55.252;61.092;2024-03-23T05:47:59;151272.88;;;25.02
84287;BMP280;74445;55.252;61.092;2024-03-23T05:50:25;151305.06;;;25.15
84287;BMP280;74445;55.252;61.092;2024-03-23T05:52:52;151353.25;;;25.35
84287;BMP280;74445;55.252;61.092;2024-03-23T05:55:18;151288.94;;;25.09
84287;BMP280;74445;55.252;61.092;2024-03-23T05:57:44;151238.28;;;24.88
84287;BMP280;74445;55.252;61.092;2024-03-23T06:00:11;151397.75;;;25.53
84287;BMP280;74445;55.252;61.092;2024-03-23T06:02:42;151463.25;;;25.79
84287;BMP280;74445;55.252;61.092;2024-03-23T06:05:12;151526.41;;;26.04
84287;BMP280;74445;55.252;61.092;2024-03-23T06:07:38;151428.63;;;25.65
84287;BMP280;74445;55.252;61.092;2024-03-23T06:10:05;151420.00;;;25.62
84287;BMP280;74445;55.252;61.092;2024-03-23T06:12:32;151417.53;;;25.61
84287;BMP280;74445;55.252;61.092;2024-03-23T06:14:58;151408.84;;;25.57
84287;BMP280;74445;55.252;61.092;2024-03-23T06:17:24;151428.63;;;25.65
84287;BMP280;74445;55.252;61.092;2024-03-23T06:19:50;151486.81;;;25.89
84287;BMP280;74445;55.252;61.092;2024-03-23T06:22:16;151445.94;;;25.72
84287;BMP280;74445;55.252;61.092;2024-03-23T06:24:42;151408.84;;;25.57
84287;BMP280;74445;55.252;61.092;2024-03-23T06:27:09;151360.66;;;25.38
84287;BMP280;74445;55.252;61.092;2024-03-23T06:29:35;151413.81;;;25.59
84287;BMP280;74445;55.252;61.092;2024-03-23T06:32:02;151520.19;;;26.02
84287;BMP280;74445;55.252;61.092;2024-03-23T06:34:29;151520.19;;;26.02
84287;BMP280;74445;55.252;61.092;2024-03-23T06:36:56;151511.56;;;25.98
84287;BMP280;74445;55.252;61.092;2024-03-23T06:39:22;151522.66;;;26.03
84287;BMP280;74445;55.252;61.092;2024-03-23T06:41:52;151541.22;;;26.10
84287;BMP280;74445;55.252;61.092;2024-03-23T06:44:19;151355.72;;;25.36
84287;BMP280;74445;55.252;61.092;2024-03-23T06:46:45;151305.06;;;25.15
84287;BMP280;74445;55.252;61.092;2024-03-23T06:49:12;151267.94;;;25.00
84287;BMP280;74445;55.252;61.092;2024-03-23T06:51:38;151224.66;;;24.83
84287;BMP280;74445;55.252;61.092;2024-03-23T06:54:05;151186.38;;;24.67
84287;BMP280;74445;55.252;61.092;2024-03-23T06:56:31;151250.63;;;24.93
84287;BMP280;74445;55.252;61.092;2024-03-23T06:58:59;151232.06;;;24.86
84287;BMP280;74445;55.252;61.092;2024-03-23T07:01:26;151188.84;;;24.68
84287;BMP280;74445;55.252;61.092;2024-03-23T07:03:54;151190.06;;;24.69
84287;BMP280;74445;55.252;61.092;2024-03-23T07:06:21;151191.31;;;24.69
84287;BMP280;74445;55.252;61.092;2024-03-23T07:08:47;151216.03;;;24.79
84287;BMP280;74445;55.252;61.092;2024-03-23T07:11:24;151212.31;;;24.78
84287;BMP280;74445;55.252;61.092;2024-03-23T07:13:55;151055.38;;;24.15
84287;BMP280;74445;55.252;61.092;2024-03-23T07:16:21;150924.41;;;23.62
84287;BMP280;74445;55.252;61.092;2024-03-23T07:18:47;150850.31;;;23.32
84287;BMP280;74445;55.252;61.092;2024-03-23T07:21:14;150802.19;;;23.13
84287;BMP280;74445;55.252;61.092;2024-03-23T07:23:44;150504.72;;;21.92
84287;BMP280;74445;55.252;61.092;2024-03-23T07:26:13;150195.13;;;20.67
84287;BMP280;74445;55.252;61.092;2024-03-23T07:28:40;149919.06;;;19.56
84287;BMP280;74445;55.252;61.092;2024-03-23T07:31:11;149665.41;;;18.53
84287;BMP280;74445;55.252;61.092;2024-03-23T07:33:42;149393.44;;;17.43
84287;BMP280;74445;55.252;61.092;2024-03-23T07:36:08;149142.53;;;16.42
84287;BMP280;74445;55.252;61.092;2024-03-23T07:38:35;148867.31;;;15.30
84287;BMP280;74445;55.252;61.092;2024-03-23T07:41:09;148764.09;;;14.88
84287;BMP280;74445;55.252;61.092;2024-03-23T07:43:37;148598.34;;;14.21
84287;BMP280;74445;55.252;61.092;2024-03-23T07:46:04;148609.41;;;14.25
84287;BMP280;74445;55.252;61.092;2024-03-23T07:48:31;148507.53;;;13.84
84287;BMP280;74445;55.252;61.092;2024-03-23T07:53:31;148339.44;;;13.16
84287;BMP280;74445;55.252;61.092;2024-03-23T07:56:02;148259.72;;;12.83
84287;BMP280;74445;55.252;61.092;2024-03-23T07:58:28;148249.91;;;12.79
84287;BMP280;74445;55.252;61.092;2024-03-23T08:00:55;148168.97;;;12.47
84287;BMP280;74445;55.252;61.092;2024-03-23T08:03:22;148180.03;;;12.51
84287;BMP280;74445;55.252;61.092;2024-03-23T08:05:48;148123.66;;;12.28
84287;BMP280;74445;55.252;61.092;2024-03-23T08:08:15;148083.19;;;12.12
84287;BMP280;74445;55.252;61.092;2024-03-23T08:10:48;148086.88;;;12.13
84287;BMP280;74445;55.252;61.092;2024-03-23T08:13:14;148021.91;;;11.87
84287;BMP280;74445;55.252;61.092;2024-03-23T08:15:41;148024.38;;;11.88
84287;BMP280;74445;55.252;61.092;2024-03-23T08:18:07;148018.25;;;11.85
84287;BMP280;74445;55.252;61.092;2024-03-23T08:20:34;148008.47;;;11.81
84287;BMP280;74445;55.252;61.092;2024-03-23T08:23:00;147993.75;;;11.75
84287;BMP280;74445;55.252;61.092;2024-03-23T08:25:27;147974.16;;;11.67
84287;BMP280;74445;55.252;61.092;2024-03-23T08:27:53;147964.34;;;11.63
84287;BMP280;74445;55.252;61.092;2024-03-23T08:30:19;147936.09;;;11.52
84287;BMP280;74445;55.252;61.092;2024-03-23T08:32:45;147957.00;;;11.60
84287;BMP280;74445;55.252;61.092;2024-03-23T08:35:12;147877.34;;;11.28
84287;BMP280;74445;55.252;61.092;2024-03-23T08:37:38;147874.91;;;11.27
84287;BMP280;74445;55.252;61.092;2024-03-23T08:40:04;147868.75;;;11.25
84287;BMP280;74445;55.252;61.092;2024-03-23T08:42:30;147858.97;;;11.21
84287;BMP280;74445;55.252;61.092;2024-03-23T08:44:56;147807.53;;;11.00
84287;BMP280;74445;55.252;61.092;2024-03-23T08:47:22;147741.41;;;10.73
84287;BMP280;74445;55.252;61.092;2024-03-23T08:49:49;147745.09;;;10.74
84287;BMP280;74445;55.252;61.092;2024-03-23T08:52:15;147699.78;;;10.56
84287;BMP280;74445;55.252;61.092;2024-03-23T08:54:41;147652.06;;;10.36
84287;BMP280;74445;55.252;61.092;2024-03-23T08:57:08;147644.72;;;10.33
84287;BMP280;74445;55.252;61.092;2024-03-23T08:59:35;147638.59;;;10.31
84287;BMP280;74445;55.252;61.092;2024-03-23T09:02:01;147572.53;;;10.04
84287;BMP280;74445;55.252;61.092;2024-03-23T09:04:30;147502.72;;;9.76
84287;BMP280;74445;55.252;61.092;2024-03-23T09:06:57;147459.94;;;9.58
84287;BMP280;74445;55.252;61.092;2024-03-23T09:09:25;147444.00;;;9.52
84287;BMP280;74445;55.252;61.092;2024-03-23T09:11:52;147381.66;;;9.26
84287;BMP280;74445;55.252;61.092;2024-03-23T09:14:18;147404.88;;;9.36
84287;BMP280;74445;55.252;61.092;2024-03-23T09:16:44;147413.47;;;9.39
84287;BMP280;74445;55.252;61.092;2024-03-23T09:19:10;147382.84;;;9.27
84287;BMP280;74445;55.252;61.092;2024-03-23T09:21:36;147344.97;;;9.11
84287;BMP280;74445;55.252;61.092;2024-03-23T09:24:02;147337.63;;;9.08
84287;BMP280;74445;55.252;61.092;2024-03-23T09:26:28;147346.16;;;9.12
84287;BMP280;74445;55.252;61.092;2024-03-23T09:28:56;147282.63;;;8.86
84287;BMP280;74445;55.252;61.092;2024-03-23T09:31:22;147259.38;;;8.77
84287;BMP280;74445;55.252;61.092;2024-03-23T09:33:48;147272.84;;;8.82
84287;BMP280;74445;55.252;61.092;2024-03-23T09:36:15;147285.09;;;8.87
84287;BMP280;74445;55.252;61.092;2024-03-23T09:38:41;147266.72;;;8.80
84287;BMP280;74445;55.252;61.092;2024-03-23T09:41:08;147225.16;;;8.63
84287;BMP280;74445;55.252;61.092;2024-03-23T09:43:35;147203.16;;;8.54
84287;BMP280;74445;55.252;61.092;2024-03-23T09:46:02;147161.59;;;8.37
84287;BMP280;74445;55.252;61.092;2024-03-23T09:48:28;147117.59;;;8.19
84287;BMP280;74445;55.252;61.092;2024-03-23T09:50:54;147110.22;;;8.16
84287;BMP280;74445;55.252;61.092;2024-03-23T09:53:20;147073.56;;;8.01
84287;BMP280;74445;55.252;61.092;2024-03-23T09:55:48;147057.72;;;7.94
84287;BMP280;74445;55.252;61.092;2024-03-23T09:58:18;147065.03;;;7.97
84287;BMP280;74445;55.252;61.092;2024-03-23T10:00:45;147010.03;;;7.75
84287;BMP280;74445;55.252;61.092;2024-03-23T10:03:12;147014.94;;;7.77
84287;BMP280;74445;55.252;61.092;2024-03-23T10:05:39;147002.72;;;7.72
84287;BMP280;74445;55.252;61.092;2024-03-23T10:10:41;146942.88;;;7.48
84287;BMP280;74445;55.252;61.092;2024-03-23T10:13:08;146931.91;;;7.43
84287;BMP280;74445;55.252;61.092;2024-03-23T10:15:35;146907.50;;;7.33
84287;BMP280;74445;55.252;61.092;2024-03-23T10:18:22;146901.34;;;7.31
84287;BMP280;74445;55.252;61.092;2024-03-23T10:20:52;146850.06;;;7.10
84287;BMP280;74445;55.252;61.092;2024-03-23T10:23:19;146832.97;;;7.03
84287;BMP280;74445;55.252;61.092;2024-03-23T10:25:46;146836.66;;;7.04
84287;BMP280;74445;55.252;61.092;2024-03-23T10:28:12;146786.59;;;6.84
84287;BMP280;74445;55.252;61.092;2024-03-23T10:30:38;146739.00;;;6.64
84287;BMP280;74445;55.252;61.092;2024-03-23T10:33:11;146731.69;;;6.61
84287;BMP280;74445;55.252;61.092;2024-03-23T10:35:38;146704.84;;;6.50
84287;BMP280;74445;55.252;61.092;2024-03-23T10:38:07;146662.16;;;6.33
84287;BMP280;74445;55.252;61.092;2024-03-23T10:40:34;146646.25;;;6.27
84287;BMP280;74445;55.252;61.092;2024-03-23T10:43:03;146625.53;;;6.18
84287;BMP280;74445;55.252;61.092;2024-03-23T10:45:30;146597.47;;;6.07
84287;BMP280;74445;55.252;61.092;2024-03-23T10:47:57;146590.13;;;6.04
84287;BMP280;74445;55.252;61.092;2024-03-23T10:50:23;146610.91;;;6.12
84287;BMP280;74445;55.252;61.092;2024-03-23T10:52:52;146597.47;;;6.07
84287;BMP280;74445;55.252;61.092;2024-03-23T10:55:20;146580.38;;;6.00
84287;BMP280;74445;55.252;61.092;2024-03-23T10:57:51;146579.19;;;5.99
84287;BMP280;74445;55.252;61.092;2024-03-23T11:00:19;146577.94;;;5.99
84287;BMP280;74445;55.252;61.092;2024-03-23T11:02:48;146547.47;;;5.86
84287;BMP280;74445;55.252;61.092;2024-03-23T11:07:53;146525.47;;;5.77
84287;BMP280;74445;55.252;61.092;2024-03-23T11:10:30;146521.78;;;5.76
84287;BMP280;74445;55.252;61.092;2024-03-23T11:13:21;146525.47;;;5.77
84287;BMP280;74445;55.252;61.092;2024-03-23T11:15:48;146530.38;;;5.79
84287;BMP280;74445;55.252;61.092;2024-03-23T11:18:20;146526.72;;;5.78
84287;BMP280;74445;55.252;61.092;2024-03-23T11:20:47;146513.25;;;5.72
84287;BMP280;74445;55.252;61.092;2024-03-23T11:23:27;146527.94;;;5.78
84287;BMP280;74445;55.252;61.092;2024-03-23T11:25:54;146493.75;;;5.64
84287;BMP280;74445;55.252;61.092;2024-03-23T11:28:21;146474.25;;;5.56
84287;BMP280;74445;55.252;61.092;2024-03-23T11:30:48;146477.88;;;5.58
84287;BMP280;74445;55.252;61.092;2024-03-23T11:33:16;146466.91;;;5.53
84287;BMP280;74445;55.252;61.092;2024-03-23T11:35:42;146437.66;;;5.41
84287;BMP280;74445;55.252;61.092;2024-03-23T11:38:13;146429.09;;;5.38
84287;BMP280;74445;55.252;61.092;2024-03-23T11:43:12;146385.19;;;5.20
84287;BMP280;74445;55.252;61.092;2024-03-23T11:45:43;146364.50;;;5.11
84287;BMP280;74445;55.252;61.092;2024-03-23T11:48:11;146364.50;;;5.11
84287;BMP280;74445;55.252;61.092;2024-03-23T11:50:40;146364.50;;;5.11
84287;BMP280;74445;55.252;61.092;2024-03-23T11:56:00;146319.41;;;4.93
84287;BMP280;74445;55.252;61.092;2024-03-23T11:58:28;146286.50;;;4.80
84287;BMP280;74445;55.252;61.092;2024-03-23T12:00:59;146273.09;;;4.74
84287;BMP280;74445;55.252;61.092;2024-03-23T12:03:26;146256.03;;;4.67
84287;BMP280;74445;55.252;61.092;2024-03-23T12:05:55;146252.38;;;4.66
84287;BMP280;74445;55.252;61.092;2024-03-23T12:08:32;146228.00;;;4.56
84287;BMP280;74445;55.252;61.092;2024-03-23T12:11:06;146213.38;;;4.50
84287;BMP280;74445;55.252;61.092;2024-03-23T12:13:33;146196.31;;;4.43
84287;BMP280;74445;55.252;61.092;2024-03-23T12:16:16;146196.31;;;4.43
84287;BMP280;74445;55.252;61.092;2024-03-23T12:18:44;146175.63;;;4.34
84287;BMP280;74445;55.252;61.092;2024-03-23T12:21:11;146158.56;;;4.27
84287;BMP280;74445;55.252;61.092;2024-03-23T12:23:41;146152.44;;;4.25
84287;BMP280;74445;55.252;61.092;2024-03-23T12:26:12;146131.78;;;4.16
84287;BMP280;74445;55.252;61.092;2024-03-23T12:28:39;146103.72;;;4.05
84287;BMP280;74445;55.252;61.092;2024-03-23T12:31:05;146097.66;;;4.02
84287;BMP280;74445;55.252;61.092;2024-03-23T12:33:31;146096.41;;;4.02
84287;BMP280;74445;55.252;61.092;2024-03-23T12:35:58;146069.63;;;3.91
84287;BMP280;74445;55.252;61.092;2024-03-23T12:38:24;146056.25;;;3.85
84287;BMP280;74445;55.252;61.092;2024-03-23T12:40:50;146047.75;;;3.82
84287;BMP280;74445;55.252;61.092;2024-03-23T12:43:17;146025.84;;;3.73
84287;BMP280;74445;55.252;61.092;2024-03-23T12:45:48;146012.41;;;3.68
84287;BMP280;74445;55.252;61.092;2024-03-23T12:48:14;145990.50;;;3.59
84287;BMP280;74445;55.252;61.092;2024-03-23T12:50:41;145971.00;;;3.51
84287;BMP280;74445;55.252;61.092;2024-03-23T12:53:07;145941.78;;;3.39
84287;BMP280;74445;55.252;61.092;2024-03-23T12:55:37;145924.75;;;3.32
84287;BMP280;74445;55.252;61.092;2024-03-23T12:58:04;145897.97;;;3.21
84287;BMP280;74445;55.252;61.092;2024-03-23T13:00:30;145868.75;;;3.09
84287;BMP280;74445;55.252;61.092;2024-03-23T13:02:56;145854.16;;;3.03
84287;BMP280;74445;55.252;61.092;2024-03-23T13:05:22;145824.94;;;2.91
84287;BMP280;74445;55.252;61.092;2024-03-23T13:07:49;145800.59;;;2.81
84287;BMP280;74445;55.252;61.092;2024-03-23T13:10:15;145775.06;;;2.70
84287;BMP280;74445;55.252;61.092;2024-03-23T13:12:42;145754.38;;;2.62
84287;BMP280;74445;55.252;61.092;2024-03-23T13:15:09;145739.78;;;2.56
84287;BMP280;74445;55.252;61.092;2024-03-23T13:17:36;145710.63;;;2.44
84287;BMP280;74445;55.252;61.092;2024-03-23T13:20:02;145692.34;;;2.37
84287;BMP280;74445;55.252;61.092;2024-03-23T13:22:31;145679.00;;;2.31
84287;BMP280;74445;55.252;61.092;2024-03-23T13:24:58;145671.69;;;2.28
84287;BMP280;74445;55.252;61.092;2024-03-23T13:27:26;145655.88;;;2.22
84287;BMP280;74445;55.252;61.092;2024-03-23T13:29:52;145632.78;;;2.12
84287;BMP280;74445;55.252;61.092;2024-03-23T13:32:20;145604.78;;;2.01
84287;BMP280;74445;55.252;61.092;2024-03-23T13:34:46;145573.16;;;1.88
84287;BMP280;74445;55.252;61.092;2024-03-23T13:37:16;145552.53;;;1.79
84287;BMP280;74445;55.252;61.092;2024-03-23T13:39:42;145528.22;;;1.69
84287;BMP280;74445;55.252;61.092;2024-03-23T13:42:08;145502.66;;;1.59
84287;BMP280;74445;55.252;61.092;2024-03-23T13:44:34;145473.47;;;1.47
84287;BMP280;74445;55.252;61.092;2024-03-23T13:47:02;145441.88;;;1.34
84287;BMP280;74445;55.252;61.092;2024-03-23T13:49:30;145407.91;;;1.20
84287;BMP280;74445;55.252;61.092;2024-03-23T13:51:59;145386.03;;;1.11
84287;BMP280;74445;55.252;61.092;2024-03-23T13:54:27;145355.63;;;0.99
84287;BMP280;74445;55.252;61.092;2024-03-23T13:56:55;145321.59;;;0.85
84287;BMP280;74445;55.252;61.092;2024-03-23T13:59:22;145300.97;;;0.76
84287;BMP280;74445;55.252;61.092;2024-03-23T14:01:50;145270.59;;;0.64
84287;BMP280;74445;55.252;61.092;2024-03-23T14:04:18;145232.94;;;0.48
84287;BMP280;74445;55.252;61.092;2024-03-23T14:06:48;145194.09;;;0.32
84287;BMP280;74445;55.252;61.092;2024-03-23T14:09:15;145140.66;;;0.10
84287;BMP280;74445;55.252;61.092;2024-03-23T14:11:47;145086.06;;;-0.12
84287;BMP280;74445;55.252;61.092;2024-03-23T14:14:14;145041.13;;;-0.30
84287;BMP280;74445;55.252;61.092;2024-03-23T14:16:44;144996.25;;;-0.49
84287;BMP280;74445;55.252;61.092;2024-03-23T14:19:10;144948.91;;;-0.68
84287;BMP280;74445;55.252;61.092;2024-03-23T14:21:36;144913.72;;;-0.83
84287;BMP280;74445;55.252;61.092;2024-03-23T14:24:02;144878.53;;;-0.97
84287;BMP280;74445;55.252;61.092;2024-03-23T14:26:29;144843.38;;;-1.12
84287;BMP280;74445;55.252;61.092;2024-03-23T14:28:55;144815.47;;;-1.23
84287;BMP280;74445;55.252;61.092;2024-03-23T14:31:22;144780.31;;;-1.37
84287;BMP280;74445;55.252;61.092;2024-03-23T14:33:48;144742.75;;;-1.53
84287;BMP280;74445;55.252;61.092;2024-03-23T14:36:17;144701.53;;;-1.70
84287;BMP280;74445;55.252;61.092;2024-03-23T14:38:49;144668.78;;;-1.83
84287;BMP280;74445;55.252;61.092;2024-03-23T14:41:15;144638.50;;;-1.96
84287;BMP280;74445;55.252;61.092;2024-03-23T14:43:41;144617.88;;;-2.04
84287;BMP280;74445;55.252;61.092;2024-03-23T14:46:14;144606.97;;;-2.09
84287;BMP280;74445;55.252;61.092;2024-03-23T14:48:41;144581.50;;;-2.19
84287;BMP280;74445;55.252;61.092;2024-03-23T14:51:09;144571.81;;;-2.23
84287;BMP280;74445;55.252;61.092;2024-03-23T14:53:37;144551.25;;;-2.32
84287;BMP280;74445;55.252;61.092;2024-03-23T14:56:07;144533.03;;;-2.39
84287;BMP280;74445;55.252;61.092;2024-03-23T14:58:35;144518.50;;;-2.45